createdAt,value
2016-10-07T23:04:23.753Z,930.21
2016-10-07T23:05:38.486Z,930.23
2016-10-07T23:06:52.495Z,930.03
2016-10-07T23:08:05.646Z,929.99
2016-10-07T23:09:18.725Z,930.04
2016-10-07T23:10:32.705Z,929.97
2016-10-07T23:11:46.329Z,929.99
2016-10-07T23:12:59.448Z,929.98
2016-10-07T23:14:12.694Z,930.01
2016-10-07T23:15:25.766Z,930.03
2016-10-07T23:16:39.632Z,930.07
2016-10-07T23:18:36.599Z,930.08
2016-10-07T23:19:50.190Z,930.03
2016-10-07T23:21:03.351Z,930.11
2016-10-07T23:22:16.984Z,930.13
2016-10-07T23:23:30.616Z,930.18
2016-10-07T23:24:43.748Z,930.2
2016-10-07T23:25:57.382Z,930.2
2016-10-07T23:27:10.472Z,930.21
2016-10-07T23:28:23.816Z,930.24
2016-10-07T23:29:36.946Z,930.29
2016-10-07T23:30:50.676Z,930.3
2016-10-07T23:34:20.140Z,930.34
2016-10-07T23:35:33.757Z,930.36
2016-10-07T23:36:47.439Z,930.37
2016-10-07T23:38:00.631Z,930.36
2016-10-07T23:39:14.241Z,930.39
2016-10-07T23:40:27.893Z,930.42
2016-10-07T23:41:40.968Z,930.47
2016-10-07T23:42:54.584Z,930.45
2016-10-07T23:44:07.627Z,930.43
2016-10-07T23:45:21.260Z,930.48
2016-10-07T23:51:24.366Z,930.55
2016-10-07T23:52:37.937Z,930.58
2016-10-07T23:53:52.654Z,930.53
2016-10-07T23:55:04.688Z,930.58
2016-10-07T23:56:18.299Z,930.6
2016-10-07T23:57:31.974Z,930.63
2016-10-07T23:58:45.047Z,930.6
2016-10-07T23:59:58.175Z,930.67
